createdAt,value
2023-04-28T00:04:27.498Z,98400.53
2023-04-28T00:09:19.340Z,98406.78
2023-04-28T00:14:11.194Z,98416.72
2023-04-28T00:19:02.817Z,98404.09
2023-04-28T00:23:54.656Z,98399.72
2023-04-28T00:28:46.331Z,98385.66
2023-04-28T00:33:41.598Z,98370.53
2023-04-28T00:38:33.246Z,98348.94
2023-04-28T00:43:25.012Z,98346.69
2023-04-28T00:48:17.102Z,98353.53
2023-04-28T00:53:08.748Z,98370.75
2023-04-28T00:58:00.730Z,98368.06
2023-04-28T01:02:53.750Z,98373.44
2023-04-28T01:07:45.551Z,98373.69
2023-04-28T01:12:37.501Z,98369.31
2023-04-28T01:17:29.237Z,98357.94
2023-04-28T01:22:20.800Z,98359.59
2023-04-28T01:27:12.436Z,98357.38
2023-04-28T01:32:04.448Z,98352.78
2023-04-28T01:36:56.456Z,98359.84
2023-04-28T01:41:48.062Z,98351.75
2023-04-28T01:46:39.781Z,98358.53
2023-04-28T01:51:32.770Z,98351.06
2023-04-28T01:56:24.412Z,98350.22
2023-04-28T02:01:16.151Z,98341.88
2023-04-28T02:06:07.995Z,98347.91
2023-04-28T02:11:01.591Z,98345.19
2023-04-28T02:15:53.250Z,98333.34
2023-04-28T02:20:44.880Z,98333.56
2023-04-28T02:25:36.450Z,98350.81
2023-04-28T02:30:28.047Z,98353.06
2023-04-28T02:35:19.650Z,98356.56
2023-04-28T02:40:11.653Z,98356.34
2023-04-28T02:45:03.303Z,98351.75
2023-04-28T02:49:54.833Z,98342.84
2023-04-28T02:54:49.079Z,98343.66
2023-04-28T02:59:40.970Z,98346.34
2023-04-28T03:04:32.645Z,98337.22
2023-04-28T03:09:24.288Z,98333.47
2023-04-28T03:14:16.043Z,98345.09
2023-04-28T03:19:07.874Z,98334.28
2023-04-28T03:23:59.484Z,98325.97
2023-04-28T03:28:51.075Z,98338.41
2023-04-28T03:33:45.537Z,98340.03
2023-04-28T03:38:37.344Z,98344.38
2023-04-28T03:43:28.958Z,98331.13
2023-04-28T03:48:21.096Z,98337.34
2023-04-28T03:53:12.777Z,98341.69
2023-04-28T03:58:04.405Z,98331.72
2023-04-28T04:02:56.290Z,98344.72
2023-04-28T04:07:48.015Z,98341.22
2023-04-28T04:12:39.616Z,98353.66
2023-04-28T04:17:31.681Z,98350.75
2023-04-28T04:22:23.373Z,98336.63
2023-04-28T04:27:15.002Z,98356.94
2023-04-28T04:32:06.713Z,98354.03
2023-04-28T04:36:58.296Z,98365.63
2023-04-28T04:41:49.974Z,98372.69
2023-04-28T04:46:41.898Z,98373.25
2023-04-28T04:51:33.574Z,98382.78
2023-04-28T04:56:25.264Z,98384.66
2023-04-28T05:01:16.826Z,98387.94
2023-04-28T05:06:08.415Z,98393.91
2023-04-28T05:11:00.021Z,98399.09
2023-04-28T05:15:51.650Z,98396.16
2023-04-28T05:20:43.218Z,98399.47
2023-04-28T05:25:34.853Z,98396.28
2023-04-28T05:30:26.434Z,98407.69
2023-04-28T05:35:18.049Z,98414.25
2023-04-28T05:40:10.009Z,98422.72
2023-04-28T05:45:02.737Z,98429.06
2023-04-28T05:49:54.277Z,98439.50
2023-04-28T05:54:46.032Z,98436.34
2023-04-28T05:59:37.663Z,98440.34
2023-04-28T06:04:29.478Z,98444.13
2023-04-28T06:09:21.534Z,98436.97
2023-04-28T06:14:13.160Z,98450.56
2023-04-28T06:19:04.812Z,98453.41
2023-04-28T06:23:56.397Z,98459.78
2023-04-28T06:28:48.128Z,98463.44
2023-04-28T06:33:39.714Z,98467.03
2023-04-28T06:38:31.359Z,98480.69
2023-04-28T06:43:22.943Z,98485.72
2023-04-28T06:48:14.625Z,98484.78
2023-04-28T06:53:06.511Z,98485.00
2023-04-28T06:57:58.288Z,98493.47
2023-04-28T07:02:50.054Z,98504.84
2023-04-28T07:07:42.063Z,98508.97
2023-04-28T07:12:33.655Z,98519.44
2023-04-28T07:17:25.580Z,98527.91
2023-04-28T07:22:17.792Z,98528.00
2023-04-28T07:27:09.362Z,98530.56
2023-04-28T07:32:08.765Z,98539.25
2023-04-28T07:37:01.232Z,98547.34
2023-04-28T07:41:52.924Z,98556.16
2023-04-28T07:46:45.050Z,98566.84
2023-04-28T07:51:36.676Z,98570.13
2023-04-28T07:56:28.282Z,98580.47
2023-04-28T08:01:19.922Z,98588.13
2023-04-28T08:06:11.703Z,98603.41
2023-04-28T08:11:03.298Z,98605.63
2023-04-28T08:16:00.356Z,98614.34
2023-04-28T08:20:51.996Z,98630.47
2023-04-28T08:25:43.558Z,98630.78
2023-04-28T08:30:35.409Z,98628.44
2023-04-28T08:35:27.308Z,98636.34
2023-04-28T08:40:19.184Z,98643.97
2023-04-28T08:45:14.444Z,98644.53
2023-04-28T08:50:08.223Z,98652.69
2023-04-28T08:55:01.667Z,98654.56
2023-04-28T08:59:53.776Z,98654.91
2023-04-28T09:04:47.213Z,98670.53
2023-04-28T09:09:40.333Z,98682.53
2023-04-28T09:14:34.459Z,98689.94
2023-04-28T09:19:34.452Z,98692.41
2023-04-28T09:24:29.282Z,98700.16
2023-04-28T09:29:20.962Z,98709.31
2023-04-28T09:34:15.880Z,98714.31
2023-04-28T09:39:07.716Z,98727.00
2023-04-28T09:44:10.486Z,98738.38
2023-04-28T09:49:02.930Z,98743.72
2023-04-28T09:53:59.797Z,98741.09
2023-04-28T09:58:53.136Z,98746.88
2023-04-28T10:03:46.260Z,98754.84
2023-04-28T10:08:40.322Z,98757.81
2023-04-28T10:13:32.497Z,98770.84
2023-04-28T10:18:24.962Z,98774.53
2023-04-28T10:23:25.469Z,98776.06
2023-04-28T10:28:17.497Z,98791.38
2023-04-28T10:33:12.150Z,98801.69
2023-04-28T10:38:15.096Z,98802.94
2023-04-28T10:43:08.954Z,98805.53
2023-04-28T10:48:04.598Z,98818.06
2023-04-28T10:52:56.266Z,98818.31
2023-04-28T10:57:47.805Z,98825.88
2023-04-28T11:02:43.763Z,98838.97
2023-04-28T11:07:36.102Z,98845.16
2023-04-28T11:12:27.854Z,98848.09
2023-04-28T11:17:40.613Z,98862.50
2023-04-28T11:22:32.511Z,98856.25
2023-04-28T11:27:29.129Z,98863.00
2023-04-28T11:32:31.833Z,98870.25
2023-04-28T11:37:23.614Z,98883.34
2023-04-28T11:42:15.387Z,98891.13
2023-04-28T11:47:07.724Z,98901.00
2023-04-28T11:52:06.860Z,98901.81
2023-04-28T11:56:59.381Z,98911.28
2023-04-28T12:01:53.019Z,98911.22
2023-04-28T12:06:44.842Z,98915.53
2023-04-28T12:11:36.534Z,98925.91
2023-04-28T12:16:39.389Z,98932.91
2023-04-28T12:21:31.343Z,98949.78
2023-04-28T12:26:26.024Z,98946.69
2023-04-28T12:31:17.664Z,98962.22
2023-04-28T12:36:09.285Z,98963.16
2023-04-28T12:41:00.943Z,98959.25
2023-04-28T12:45:53.990Z,98974.34
2023-04-28T12:50:46.211Z,98975.38
2023-04-28T12:55:40.941Z,98969.91
2023-04-28T13:00:32.593Z,98978.22
2023-04-28T13:05:24.579Z,98982.91
2023-04-28T13:10:16.470Z,98991.34
2023-04-28T13:15:08.796Z,99002.53
2023-04-28T13:20:01.671Z,99003.53
2023-04-28T13:24:53.246Z,98999.50
2023-04-28T13:29:44.825Z,99010.09
2023-04-28T13:34:38.172Z,99017.75
2023-04-28T13:39:29.835Z,99023.69
2023-04-28T13:44:21.604Z,99024.00
2023-04-28T13:49:13.415Z,99022.34
2023-04-28T13:54:08.302Z,99023.88
2023-04-28T13:59:00.072Z,99024.22
2023-04-28T14:03:51.875Z,99032.72
2023-04-28T14:08:43.484Z,99029.22
2023-04-28T14:13:35.849Z,99035.03
2023-04-28T14:18:28.972Z,99018.38
2023-04-28T14:23:21.290Z,99038.53
2023-04-28T14:28:12.901Z,99037.13
2023-04-28T14:33:04.628Z,99037.75
2023-04-28T14:37:56.874Z,99052.03
2023-04-28T14:42:49.454Z,99037.81
2023-04-28T14:47:41.470Z,99044.97
2023-04-28T14:52:33.696Z,99042.16
2023-04-28T14:57:26.046Z,99048.91
2023-04-28T15:02:18.874Z,99046.13
2023-04-28T15:07:10.622Z,99049.63
2023-04-28T15:12:03.179Z,99044.59
2023-04-28T15:16:55.096Z,99056.88
2023-04-28T15:21:46.924Z,99050.31
2023-04-28T15:26:38.575Z,99050.78
2023-04-28T15:31:30.235Z,99053.31
2023-04-28T15:36:22.637Z,99058.78
2023-04-28T15:41:15.233Z,99057.72
2023-04-28T15:46:11.202Z,99064.13
2023-04-28T15:51:02.917Z,99063.00
2023-04-28T15:55:54.568Z,99059.81
2023-04-28T16:00:46.269Z,99075.63
2023-04-28T16:05:39.187Z,99076.47
2023-04-28T16:10:30.844Z,99071.81
2023-04-28T16:15:22.904Z,99074.78
2023-04-28T16:20:15.114Z,99089.72
2023-04-28T16:25:07.509Z,99099.25
2023-04-28T16:29:59.759Z,99106.84
2023-04-28T16:34:51.724Z,99113.38
2023-04-28T16:39:43.518Z,99120.81
2023-04-28T16:44:35.935Z,99122.63
2023-04-28T16:49:27.747Z,99135.69
2023-04-28T16:54:19.409Z,99131.34
2023-04-28T16:59:11.207Z,99136.28
2023-04-28T17:04:06.774Z,99141.00
2023-04-28T17:08:59.768Z,99136.94
2023-04-28T17:13:51.462Z,99125.69
2023-04-28T17:18:43.443Z,99135.22
2023-04-28T17:23:34.971Z,99132.97
2023-04-28T17:28:27.999Z,99141.59
2023-04-28T17:33:19.665Z,99138.81
2023-04-28T17:38:11.374Z,99146.19
2023-04-28T17:43:04.178Z,99149.09
2023-04-28T17:48:00.713Z,99157.53
2023-04-28T17:52:52.327Z,99164.66
2023-04-28T17:57:44.144Z,99159.06
2023-04-28T18:02:36.008Z,99166.94
2023-04-28T18:07:28.048Z,99158.97
2023-04-28T18:12:20.007Z,99166.75
2023-04-28T18:17:11.699Z,99171.56
2023-04-28T18:22:03.282Z,99172.59
2023-04-28T18:26:55.043Z,99169.25
2023-04-28T18:31:46.878Z,99167.53
2023-04-28T18:36:38.505Z,99182.97
2023-04-28T18:41:30.673Z,99184.72
2023-04-28T18:46:22.330Z,99202.56
2023-04-28T18:51:14.084Z,99206.28
2023-04-28T18:56:05.765Z,99211.44
2023-04-28T19:00:57.440Z,99218.91
2023-04-28T19:05:48.998Z,99238.47
2023-04-28T19:10:41.292Z,99238.38
2023-04-28T19:15:35.864Z,99241.84
2023-04-28T19:20:27.736Z,99246.38
2023-04-28T19:25:19.308Z,99250.06
2023-04-28T19:30:15.120Z,99254.34
2023-04-28T19:35:07.235Z,99259.63
2023-04-28T19:39:59.304Z,99258.38
2023-04-28T19:44:55.676Z,99270.47
2023-04-28T19:49:47.460Z,99279.25
2023-04-28T19:54:39.049Z,99287.06
2023-04-28T19:59:30.703Z,99292.19
2023-04-28T20:04:22.616Z,99303.78
2023-04-28T20:09:14.362Z,99303.44
2023-04-28T20:14:06.183Z,99306.06
2023-04-28T20:18:57.731Z,99310.78
2023-04-28T20:23:49.389Z,99319.66
2023-04-28T20:28:41.695Z,99327.72
2023-04-28T20:33:33.715Z,99323.47
2023-04-28T20:38:25.516Z,99334.94
2023-04-28T20:43:17.326Z,99339.66
2023-04-28T20:48:09.093Z,99347.78
2023-04-28T20:53:01.501Z,99349.56
2023-04-28T20:57:53.100Z,99348.84
2023-04-28T21:02:45.601Z,99353.19
2023-04-28T21:07:37.372Z,99349.63
2023-04-28T21:12:28.986Z,99356.09
2023-04-28T21:17:20.689Z,99356.06
2023-04-28T21:22:12.596Z,99353.47
2023-04-28T21:27:04.934Z,99361.31
2023-04-28T21:31:56.911Z,99362.69
2023-04-28T21:36:48.509Z,99369.63
2023-04-28T21:41:40.130Z,99373.41
2023-04-28T21:46:31.794Z,99381.91
2023-04-28T21:51:23.471Z,99385.84
2023-04-28T21:56:16.140Z,99379.09
2023-04-28T22:01:07.967Z,99390.59
2023-04-28T22:06:00.309Z,99388.47
2023-04-28T22:10:52.142Z,99391.16
2023-04-28T22:15:43.769Z,99394.69
2023-04-28T22:20:36.099Z,99391.16
2023-04-28T22:25:27.636Z,99394.03
2023-04-28T22:30:19.476Z,99394.19
2023-04-28T22:35:12.732Z,99396.44
2023-04-28T22:40:06.779Z,99397.59
2023-04-28T22:44:58.321Z,99398.22
2023-04-28T22:49:50.047Z,99402.56
2023-04-28T22:54:41.796Z,99402.56
2023-04-28T22:59:33.385Z,99412.38
2023-04-28T23:04:25.188Z,99415.69
2023-04-28T23:09:16.853Z,99406.97
2023-04-28T23:14:08.412Z,99410.25
2023-04-28T23:18:59.983Z,99412.75
2023-04-28T23:23:51.588Z,99419.38
2023-04-28T23:28:43.225Z,99426.25
2023-04-28T23:33:34.832Z,99422.22
2023-04-28T23:38:27.059Z,99422.00
2023-04-28T23:43:18.626Z,99420.50
2023-04-28T23:48:11.116Z,99423.56
2023-04-28T23:53:02.782Z,99427.94
2023-04-28T23:57:54.520Z,99419.56
